createdAt,value
2019-02-20T00:00:51.162Z,22.79
2019-02-20T00:02:00.608Z,22.76
2019-02-20T00:03:10.051Z,22.75
2019-02-20T00:04:19.760Z,22.72
2019-02-20T00:05:29.191Z,22.79
2019-02-20T00:06:39.181Z,22.75
2019-02-20T00:07:48.136Z,22.7
2019-02-20T00:08:58.078Z,22.65
2019-02-20T00:10:07.504Z,22.67
2019-02-20T00:11:16.946Z,22.67
2019-02-20T00:12:26.114Z,22.65
2019-02-20T00:13:35.540Z,22.67
2019-02-20T00:14:44.469Z,22.57
2019-02-20T00:15:53.933Z,22.6
2019-02-20T00:17:03.598Z,22.62
2019-02-20T00:18:12.761Z,22.68
2019-02-20T00:19:22.754Z,22.58
2019-02-20T00:20:32.174Z,22.61
2019-02-20T00:21:41.373Z,22.58
2019-02-20T00:22:50.327Z,22.54
2019-02-20T00:24:00.024Z,22.58
2019-02-20T00:25:09.199Z,22.54
2019-02-20T00:26:18.387Z,22.6
2019-02-20T00:27:27.851Z,22.58
2019-02-20T00:28:37.539Z,22.58
2019-02-20T00:29:46.709Z,22.57
2019-02-20T00:30:55.640Z,22.57
2019-02-20T00:32:05.320Z,22.51
2019-02-20T00:33:14.759Z,22.52
2019-02-20T00:34:24.712Z,22.57
2019-02-20T00:35:34.147Z,22.55
2019-02-20T00:36:43.881Z,22.54
2019-02-20T00:37:53.069Z,22.52
2019-02-20T00:39:02.499Z,22.6
2019-02-20T00:40:11.926Z,22.55
2019-02-20T00:41:20.876Z,22.52
2019-02-20T00:42:30.067Z,22.57
2019-02-20T00:43:38.998Z,22.61
2019-02-20T00:44:48.164Z,22.6
2019-02-20T00:45:59.054Z,22.47
2019-02-20T00:47:07.989Z,22.57
2019-02-20T00:48:17.457Z,22.45
2019-02-20T00:49:26.691Z,22.52
2019-02-20T00:50:36.383Z,22.51
2019-02-20T00:51:45.827Z,22.49
2019-02-20T00:52:55.438Z,22.42
2019-02-20T00:54:05.149Z,22.42
2019-02-20T00:55:16.297Z,22.39
2019-02-20T00:56:26.004Z,22.39
2019-02-20T00:57:35.196Z,22.46
2019-02-20T00:58:44.418Z,22.43
2019-02-20T00:59:53.847Z,22.46
2019-02-20T01:01:03.336Z,22.45
2019-02-20T01:02:12.540Z,22.39
2019-02-20T01:03:22.222Z,22.45
2019-02-20T01:04:31.947Z,22.45
2019-02-20T01:05:41.667Z,22.46
2019-02-20T01:06:50.871Z,22.35
2019-02-20T01:07:59.803Z,22.4
2019-02-20T01:09:09.490Z,22.42
2019-02-20T01:10:18.962Z,22.39
2019-02-20T01:11:28.427Z,22.37
2019-02-20T01:12:37.906Z,22.37
2019-02-20T01:13:47.108Z,22.39
2019-02-20T01:14:56.554Z,22.36
2019-02-20T01:16:05.992Z,22.3
2019-02-20T01:17:15.736Z,22.39
2019-02-20T01:18:25.194Z,22.33
2019-02-20T01:19:34.886Z,22.3
2019-02-20T01:20:44.611Z,22.31
2019-02-20T01:21:53.853Z,22.3
2019-02-20T01:23:04.816Z,22.24
2019-02-20T01:24:14.244Z,22.28
2019-02-20T01:25:23.426Z,22.3
2019-02-20T01:26:32.870Z,22.3
2019-02-20T01:27:42.311Z,22.3
2019-02-20T01:28:51.515Z,22.3
2019-02-20T01:30:01.198Z,22.28
2019-02-20T01:31:11.096Z,22.21
2019-02-20T01:32:20.267Z,22.21
2019-02-20T01:33:29.473Z,22.18
2019-02-20T01:34:38.927Z,22.18
2019-02-20T01:35:48.095Z,22.24
2019-02-20T01:36:57.803Z,22.2
2019-02-20T01:38:07.526Z,22.14
2019-02-20T01:39:16.965Z,22.21
2019-02-20T01:40:26.226Z,22.18
2019-02-20T01:41:35.407Z,22.21
2019-02-20T01:42:44.350Z,22.21
2019-02-20T01:43:53.781Z,22.24
2019-02-20T01:45:02.745Z,22.21
2019-02-20T01:46:11.697Z,22.2
2019-02-20T01:47:20.884Z,22.22
2019-02-20T01:48:30.339Z,22.17
2019-02-20T01:49:40.297Z,22.15
2019-02-20T01:50:49.960Z,22.17
2019-02-20T01:51:59.387Z,22.12
2019-02-20T01:53:15.086Z,22.27
2019-02-20T01:54:24.770Z,22.14
2019-02-20T01:55:34.456Z,22.03
2019-02-20T01:56:43.397Z,22.12
2019-02-20T01:57:52.633Z,22.14
2019-02-20T01:59:02.362Z,22
2019-02-20T02:00:11.829Z,22.14
2019-02-20T02:01:21.534Z,22.07
2019-02-20T02:02:30.726Z,22.09
2019-02-20T02:03:41.597Z,22.14
2019-02-20T02:04:51.348Z,22.07
2019-02-20T02:06:01.016Z,22.05
2019-02-20T02:07:10.731Z,22.07
2019-02-20T02:08:20.232Z,22.09
2019-02-20T02:09:30.189Z,22.06
2019-02-20T02:10:39.386Z,22.05
2019-02-20T02:11:48.853Z,22.07
2019-02-20T02:12:58.282Z,22.02
2019-02-20T02:14:07.730Z,21.99
2019-02-20T02:15:24.859Z,21.94
2019-02-20T02:16:34.028Z,22.03
2019-02-20T02:17:43.481Z,21.96
2019-02-20T02:18:53.203Z,22
2019-02-20T02:20:02.666Z,22
2019-02-20T02:21:11.850Z,22
2019-02-20T02:22:21.776Z,21.98
2019-02-20T02:23:31.470Z,21.98
2019-02-20T02:24:41.158Z,21.99
2019-02-20T02:25:50.111Z,21.96
2019-02-20T02:26:59.338Z,21.96
2019-02-20T02:28:08.552Z,22
2019-02-20T02:29:17.751Z,21.94
2019-02-20T02:30:27.205Z,21.98
2019-02-20T02:31:36.700Z,21.99
2019-02-20T02:32:45.902Z,21.92
2019-02-20T02:33:55.324Z,22.02
2019-02-20T02:35:05.032Z,21.9
2019-02-20T02:36:14.788Z,21.88
2019-02-20T02:37:24.001Z,21.99
2019-02-20T02:38:33.684Z,22
2019-02-20T02:39:43.475Z,21.98
2019-02-20T02:40:52.937Z,22
2019-02-20T02:42:02.949Z,21.99
2019-02-20T02:43:12.427Z,21.98
2019-02-20T02:44:21.663Z,21.96
2019-02-20T02:45:30.861Z,21.99
2019-02-20T02:46:40.307Z,21.94
2019-02-20T02:47:49.775Z,21.94
2019-02-20T02:48:58.977Z,21.86
2019-02-20T02:50:08.663Z,21.92
2019-02-20T02:51:18.172Z,21.98
2019-02-20T02:52:28.097Z,21.84
2019-02-20T02:53:37.277Z,21.96
2019-02-20T02:54:46.473Z,21.96
2019-02-20T02:55:56.163Z,21.99
2019-02-20T02:57:05.615Z,21.88
2019-02-20T02:58:15.314Z,21.94
2019-02-20T02:59:24.777Z,21.9
2019-02-20T03:00:34.268Z,21.92
2019-02-20T03:01:43.721Z,21.88
2019-02-20T03:02:52.930Z,21.96
2019-02-20T03:04:02.131Z,21.91
2019-02-20T03:05:11.817Z,21.92
2019-02-20T03:06:20.993Z,21.86
2019-02-20T03:07:30.433Z,21.86
2019-02-20T03:08:40.123Z,21.9
2019-02-20T03:09:49.320Z,21.82
2019-02-20T03:10:59.309Z,21.9
2019-02-20T03:12:09.119Z,21.92
2019-02-20T03:13:18.877Z,21.96
2019-02-20T03:14:28.103Z,21.91
2019-02-20T03:15:37.848Z,21.94
2019-02-20T03:16:47.551Z,21.92
2019-02-20T03:17:57.032Z,21.9
2019-02-20T03:19:06.987Z,21.84
2019-02-20T03:20:15.935Z,21.8
2019-02-20T03:21:25.115Z,21.88
2019-02-20T03:22:34.619Z,21.83
2019-02-20T03:23:45.123Z,21.79
2019-02-20T03:24:54.570Z,21.88
2019-02-20T03:26:03.754Z,21.9
2019-02-20T03:27:13.202Z,21.75
2019-02-20T03:28:22.675Z,21.88
2019-02-20T03:29:32.106Z,21.75
2019-02-20T03:30:41.574Z,21.79
2019-02-20T03:31:51.354Z,21.88
2019-02-20T03:33:01.097Z,21.84
2019-02-20T03:34:13.415Z,21.74
2019-02-20T03:35:23.110Z,21.84
2019-02-20T03:36:32.797Z,21.82
2019-02-20T03:37:42.822Z,21.83
2019-02-20T03:38:52.522Z,21.83
2019-02-20T03:40:02.024Z,21.83
2019-02-20T03:41:11.731Z,21.8
2019-02-20T03:42:21.450Z,21.9
2019-02-20T03:43:31.127Z,21.83
2019-02-20T03:44:40.580Z,21.75
2019-02-20T03:45:50.040Z,21.75
2019-02-20T03:46:59.728Z,21.82
2019-02-20T03:48:08.958Z,21.83
2019-02-20T03:49:17.905Z,21.75
2019-02-20T03:50:27.342Z,21.83
2019-02-20T03:51:36.788Z,21.75
2019-02-20T03:52:45.982Z,21.8
2019-02-20T03:53:57.068Z,21.77
2019-02-20T03:55:06.803Z,21.74
2019-02-20T03:56:16.244Z,21.8
2019-02-20T03:57:25.685Z,21.79
2019-02-20T03:58:35.809Z,21.68
2019-02-20T03:59:45.282Z,21.79
2019-02-20T04:00:54.980Z,21.77
2019-02-20T04:02:04.164Z,21.77
2019-02-20T04:03:13.648Z,21.72
2019-02-20T04:04:23.096Z,21.75
2019-02-20T04:05:32.272Z,21.77
2019-02-20T04:06:41.462Z,21.77
2019-02-20T04:07:51.379Z,21.69
2019-02-20T04:09:01.075Z,21.77
2019-02-20T04:10:11.573Z,21.74
2019-02-20T04:11:21.348Z,21.79
2019-02-20T04:12:30.834Z,21.74
2019-02-20T04:13:40.282Z,21.74
2019-02-20T04:14:49.775Z,21.71
2019-02-20T04:15:59.196Z,21.68
2019-02-20T04:17:08.161Z,21.71
2019-02-20T04:18:17.608Z,21.71
2019-02-20T04:19:27.322Z,21.62
2019-02-20T04:20:37.011Z,21.71
2019-02-20T04:21:46.953Z,21.77
2019-02-20T04:22:55.914Z,21.67
2019-02-20T04:24:07.836Z,21.67
2019-02-20T04:25:17.028Z,21.71
2019-02-20T04:26:26.726Z,21.68
2019-02-20T04:27:35.928Z,21.74
2019-02-20T04:28:45.607Z,21.62
2019-02-20T04:29:55.072Z,21.72
2019-02-20T04:31:04.809Z,21.68
2019-02-20T04:32:14.503Z,21.61
2019-02-20T04:33:24.210Z,21.64
2019-02-20T04:34:33.644Z,21.72
2019-02-20T04:35:43.357Z,21.62
2019-02-20T04:36:52.806Z,21.67
2019-02-20T04:38:02.237Z,21.64
2019-02-20T04:39:11.970Z,21.65
2019-02-20T04:40:21.166Z,21.64
2019-02-20T04:41:30.607Z,21.64
2019-02-20T04:42:40.548Z,21.62
2019-02-20T04:43:49.989Z,21.65
2019-02-20T04:44:59.206Z,21.68
2019-02-20T04:46:08.658Z,21.69
2019-02-20T04:47:18.332Z,21.61
2019-02-20T04:48:27.557Z,21.61
2019-02-20T04:49:36.797Z,21.61
2019-02-20T04:50:46.540Z,21.58
2019-02-20T04:51:56.348Z,21.61
2019-02-20T04:53:05.795Z,21.62
2019-02-20T04:54:18.118Z,21.65
2019-02-20T04:55:27.592Z,21.67
2019-02-20T04:56:37.048Z,21.61
2019-02-20T04:57:46.745Z,21.62
2019-02-20T04:58:56.679Z,21.64
2019-02-20T05:00:06.121Z,21.61
2019-02-20T05:01:16.137Z,21.62
2019-02-20T05:02:25.825Z,21.61
2019-02-20T05:03:35.760Z,21.62
2019-02-20T05:04:45.197Z,21.65
2019-02-20T05:05:54.645Z,21.58
2019-02-20T05:07:04.369Z,21.61
2019-02-20T05:08:14.344Z,21.58
2019-02-20T05:09:23.798Z,21.53
2019-02-20T05:10:33.043Z,21.5
2019-02-20T05:11:42.761Z,21.54
2019-02-20T05:12:52.452Z,21.56
2019-02-20T05:14:02.195Z,21.52
2019-02-20T05:15:12.161Z,21.54
2019-02-20T05:16:21.618Z,21.52
2019-02-20T05:17:31.401Z,21.61
2019-02-20T05:18:40.849Z,21.59
2019-02-20T05:19:49.855Z,21.54
2019-02-20T05:20:59.304Z,21.56
2019-02-20T05:22:08.779Z,21.54
2019-02-20T05:23:18.238Z,21.54
2019-02-20T05:24:29.993Z,21.52
2019-02-20T05:25:39.698Z,21.54
2019-02-20T05:26:48.905Z,21.54
2019-02-20T05:27:58.124Z,21.54
2019-02-20T05:29:07.589Z,21.59
2019-02-20T05:30:17.287Z,21.59
2019-02-20T05:31:26.970Z,21.54
2019-02-20T05:32:36.426Z,21.56
2019-02-20T05:33:46.114Z,21.53
2019-02-20T05:34:55.811Z,21.59
2019-02-20T05:36:05.733Z,21.54
2019-02-20T05:37:14.947Z,21.58
2019-02-20T05:38:24.643Z,21.59
2019-02-20T05:39:34.352Z,21.59
2019-02-20T05:40:44.045Z,21.54
2019-02-20T05:41:53.465Z,21.56
2019-02-20T05:43:02.901Z,21.46
2019-02-20T05:44:12.364Z,21.56
2019-02-20T05:45:22.379Z,21.53
2019-02-20T05:46:31.806Z,21.53
2019-02-20T05:47:41.500Z,21.52
2019-02-20T05:48:53.212Z,21.53
2019-02-20T05:50:02.658Z,21.54
2019-02-20T05:51:12.672Z,21.54
2019-02-20T05:52:21.855Z,21.53
2019-02-20T05:53:31.305Z,21.5
2019-02-20T05:54:41.240Z,21.49
2019-02-20T05:55:50.700Z,21.47
2019-02-20T05:56:59.696Z,21.59
2019-02-20T05:58:09.628Z,21.49
2019-02-20T05:59:18.598Z,21.56
2019-02-20T06:00:28.581Z,21.53
2019-02-20T06:01:38.313Z,21.56
2019-02-20T06:02:47.771Z,21.58
2019-02-20T06:03:57.468Z,21.58
2019-02-20T06:05:06.932Z,21.53
2019-02-20T06:06:16.869Z,21.59
2019-02-20T06:07:26.569Z,21.58
2019-02-20T06:08:36.250Z,21.59
2019-02-20T06:09:46.190Z,21.58
2019-02-20T06:10:55.636Z,21.58
2019-02-20T06:12:05.100Z,21.68
2019-02-20T06:13:14.786Z,21.67
2019-02-20T06:14:24.244Z,21.74
2019-02-20T06:15:33.685Z,21.8
2019-02-20T06:16:43.398Z,21.92
2019-02-20T06:17:53.551Z,21.91
2019-02-20T06:19:03.283Z,21.98
2019-02-20T06:20:12.706Z,21.96
2019-02-20T06:21:22.392Z,22.09
2019-02-20T06:22:32.083Z,22.14
2019-02-20T06:23:41.777Z,22.21
2019-02-20T06:24:50.699Z,22.24
2019-02-20T06:25:59.896Z,22.37
2019-02-20T06:27:10.384Z,22.46
2019-02-20T06:28:20.105Z,22.43
2019-02-20T06:29:29.562Z,22.54
2019-02-20T06:30:39.249Z,22.62
2019-02-20T06:31:49.195Z,22.54
2019-02-20T06:32:58.887Z,22.58
2019-02-20T06:34:08.589Z,22.73
2019-02-20T06:35:17.785Z,22.7
2019-02-20T06:36:27.459Z,22.73
2019-02-20T06:37:36.654Z,22.82
2019-02-20T06:38:46.106Z,22.85
2019-02-20T06:39:55.309Z,22.92
2019-02-20T06:41:04.828Z,22.92
2019-02-20T06:42:14.601Z,22.98
2019-02-20T06:43:24.340Z,23
2019-02-20T06:44:33.790Z,23.05
2019-02-20T06:45:43.244Z,23.09
2019-02-20T06:46:52.506Z,23.15
2019-02-20T06:48:02.463Z,23.19
2019-02-20T06:49:11.929Z,23.16
2019-02-20T06:50:21.400Z,23.15
2019-02-20T06:51:31.143Z,23.15
2019-02-20T06:52:40.850Z,23.2
2019-02-20T06:53:49.841Z,23.23
2019-02-20T06:54:58.966Z,23.32
2019-02-20T06:56:08.751Z,23.23
2019-02-20T06:57:17.721Z,23.28
2019-02-20T06:58:27.167Z,23.27
2019-02-20T06:59:36.373Z,23.22
2019-02-20T07:00:45.817Z,23.25
2019-02-20T07:01:55.022Z,23.28
2019-02-20T07:03:04.732Z,23.19
2019-02-20T07:04:14.182Z,23.23
2019-02-20T07:05:23.373Z,23.19
2019-02-20T07:06:32.817Z,23.22
2019-02-20T07:07:41.755Z,23.17
2019-02-20T07:08:51.232Z,23.2
2019-02-20T07:10:00.923Z,23.2
2019-02-20T07:11:10.427Z,23.16
2019-02-20T07:12:20.136Z,23.16
2019-02-20T07:13:29.580Z,23.16
2019-02-20T07:14:38.775Z,23.16
2019-02-20T07:15:48.482Z,23.15
2019-02-20T07:16:57.675Z,23.15
2019-02-20T07:18:07.213Z,23.1
2019-02-20T07:19:16.424Z,23.07
2019-02-20T07:20:25.882Z,23.09
2019-02-20T07:21:35.601Z,23.04
2019-02-20T07:22:45.557Z,23.04
2019-02-20T07:23:55.247Z,23.09
2019-02-20T07:25:08.110Z,23
2019-02-20T07:26:17.303Z,22.98
2019-02-20T07:27:27.288Z,23.01
2019-02-20T07:28:36.754Z,22.98
2019-02-20T07:29:45.720Z,22.98
2019-02-20T07:30:55.468Z,22.98
2019-02-20T07:32:04.671Z,22.95
2019-02-20T07:33:14.147Z,22.97
2019-02-20T07:34:23.410Z,22.88
2019-02-20T07:35:32.762Z,22.83
2019-02-20T07:36:42.725Z,22.88
2019-02-20T07:37:51.704Z,22.85
2019-02-20T07:39:00.649Z,22.83
2019-02-20T07:40:10.116Z,22.83
2019-02-20T07:41:19.607Z,22.79
2019-02-20T07:42:29.287Z,22.8
2019-02-20T07:43:38.746Z,22.75
2019-02-20T07:44:47.957Z,22.67
2019-02-20T07:45:57.389Z,22.7
2019-02-20T07:47:06.593Z,22.62
2019-02-20T07:48:16.017Z,22.67
2019-02-20T07:49:24.973Z,22.7
2019-02-20T07:50:34.416Z,22.68
2019-02-20T07:51:43.877Z,22.73
2019-02-20T07:52:53.809Z,22.73
2019-02-20T07:54:03.058Z,22.68
2019-02-20T07:55:18.401Z,22.58
2019-02-20T07:56:29.002Z,22.61
2019-02-20T07:57:38.438Z,22.58
2019-02-20T07:58:48.409Z,22.57
2019-02-20T07:59:58.348Z,22.57
2019-02-20T08:01:07.799Z,22.64
2019-02-20T08:02:17.224Z,22.55
2019-02-20T08:03:26.666Z,22.55
2019-02-20T08:04:36.916Z,22.54
2019-02-20T08:05:46.874Z,22.61
2019-02-20T08:06:56.595Z,22.6
2019-02-20T08:08:06.040Z,22.67
2019-02-20T08:09:15.486Z,22.54
2019-02-20T08:10:24.916Z,22.52
2019-02-20T08:11:34.362Z,22.62
2019-02-20T08:12:44.057Z,22.52
2019-02-20T08:13:53.497Z,22.52
2019-02-20T08:15:02.942Z,22.57
2019-02-20T08:16:12.910Z,22.57
2019-02-20T08:17:22.610Z,22.57
2019-02-20T08:18:32.059Z,22.55
2019-02-20T08:19:41.245Z,22.52
2019-02-20T08:20:51.186Z,22.52
2019-02-20T08:22:00.379Z,22.61
2019-02-20T08:23:09.849Z,22.55
2019-02-20T08:24:19.799Z,22.54
2019-02-20T08:25:28.755Z,22.55
2019-02-20T08:26:37.952Z,22.51
2019-02-20T08:27:46.920Z,22.54
2019-02-20T08:28:56.871Z,22.45
2019-02-20T08:30:06.310Z,22.37
2019-02-20T08:31:15.746Z,22.49
2019-02-20T08:32:25.440Z,22.46
2019-02-20T08:33:34.883Z,22.46
2019-02-20T08:34:44.112Z,22.46
2019-02-20T08:35:53.576Z,22.45
2019-02-20T08:37:03.039Z,22.46
2019-02-20T08:38:12.756Z,22.45
2019-02-20T08:39:22.222Z,22.45
2019-02-20T08:40:31.666Z,22.4
2019-02-20T08:41:41.113Z,22.4
2019-02-20T08:42:50.047Z,22.43
2019-02-20T08:43:59.491Z,22.39
2019-02-20T08:45:08.964Z,22.43
2019-02-20T08:46:17.671Z,22.42
2019-02-20T08:47:26.626Z,22.43
2019-02-20T08:48:35.870Z,22.39
2019-02-20T08:49:45.097Z,22.39
2019-02-20T08:50:54.320Z,22.37
2019-02-20T08:52:04.052Z,22.4
2019-02-20T08:53:13.264Z,22.47
2019-02-20T08:54:22.224Z,22.42
2019-02-20T08:55:37.114Z,22.37
2019-02-20T08:56:47.077Z,22.36
2019-02-20T08:57:56.855Z,22.46
2019-02-20T08:59:06.054Z,22.45
2019-02-20T09:00:16.016Z,22.47
2019-02-20T09:01:26.078Z,22.45
2019-02-20T09:02:35.535Z,22.37
2019-02-20T09:03:44.980Z,22.46
2019-02-20T09:04:54.819Z,22.42
2019-02-20T09:06:04.614Z,22.42
2019-02-20T09:07:14.361Z,22.51
2019-02-20T09:08:23.564Z,22.51
2019-02-20T09:09:33.035Z,22.58
2019-02-20T09:10:42.243Z,22.51
2019-02-20T09:11:52.082Z,22.49
2019-02-20T09:13:01.528Z,22.46
2019-02-20T09:14:11.261Z,22.62
2019-02-20T09:15:20.704Z,22.58
2019-02-20T09:16:30.391Z,22.55
2019-02-20T09:17:39.627Z,22.61
2019-02-20T09:18:48.820Z,22.54
2019-02-20T09:19:58.497Z,22.57
2019-02-20T09:21:08.204Z,22.55
2019-02-20T09:22:17.919Z,22.57
2019-02-20T09:23:27.343Z,22.57
2019-02-20T09:24:37.037Z,22.58
2019-02-20T09:25:46.566Z,22.6
2019-02-20T09:27:08.513Z,22.58
2019-02-20T09:28:18.211Z,22.6
2019-02-20T09:29:27.679Z,22.61
2019-02-20T09:30:37.147Z,22.6
2019-02-20T09:31:46.389Z,22.6
2019-02-20T09:32:55.570Z,22.64
2019-02-20T09:34:05.014Z,22.61
2019-02-20T09:35:14.715Z,22.67
2019-02-20T09:36:23.937Z,22.57
2019-02-20T09:37:33.647Z,22.55
2019-02-20T09:38:43.092Z,22.58
2019-02-20T09:39:52.526Z,22.64
2019-02-20T09:41:02.244Z,22.55
2019-02-20T09:42:11.932Z,22.68
2019-02-20T09:43:21.135Z,22.61
2019-02-20T09:44:30.814Z,22.68
2019-02-20T09:45:46.790Z,22.6
2019-02-20T09:46:56.266Z,22.52
2019-02-20T09:48:06.246Z,22.61
2019-02-20T09:49:15.702Z,22.54
2019-02-20T09:50:25.441Z,22.55
2019-02-20T09:51:34.615Z,22.6
2019-02-20T09:52:51.850Z,22.51
2019-02-20T09:54:01.463Z,22.54
2019-02-20T09:55:10.703Z,22.6
2019-02-20T09:56:20.814Z,22.58
2019-02-20T09:57:30.020Z,22.62
2019-02-20T09:58:39.277Z,22.49
2019-02-20T09:59:48.758Z,22.57
2019-02-20T10:00:58.263Z,22.57
2019-02-20T10:02:10.058Z,22.62
2019-02-20T10:03:18.807Z,22.54
2019-02-20T10:04:28.257Z,22.55
2019-02-20T10:05:37.715Z,22.57
2019-02-20T10:06:49.501Z,22.6
2019-02-20T10:07:58.731Z,22.52
2019-02-20T10:09:09.827Z,22.55
2019-02-20T10:10:21.477Z,22.52
2019-02-20T10:11:30.947Z,22.61
2019-02-20T10:12:40.422Z,22.54
2019-02-20T10:13:49.201Z,22.6
2019-02-20T10:14:58.425Z,22.55
2019-02-20T10:16:07.897Z,22.54
2019-02-20T10:17:17.349Z,22.54
2019-02-20T10:18:27.050Z,22.51
2019-02-20T10:19:36.015Z,22.55
2019-02-20T10:20:45.729Z,22.58
2019-02-20T10:21:55.192Z,22.57
2019-02-20T10:23:04.662Z,22.51
2019-02-20T10:24:13.880Z,22.6
2019-02-20T10:25:23.336Z,22.58
2019-02-20T10:26:33.405Z,22.57
2019-02-20T10:27:43.176Z,22.55
2019-02-20T10:28:54.019Z,22.46
2019-02-20T10:30:04.088Z,22.47
2019-02-20T10:31:13.058Z,22.54
2019-02-20T10:32:23.015Z,22.49
2019-02-20T10:33:32.695Z,22.49
2019-02-20T10:34:42.694Z,22.51
2019-02-20T10:35:51.889Z,22.43
2019-02-20T10:37:01.318Z,22.37
2019-02-20T10:38:10.934Z,22.57
2019-02-20T10:39:20.103Z,22.43
2019-02-20T10:40:29.790Z,22.51
2019-02-20T10:41:38.986Z,22.39
2019-02-20T10:42:47.692Z,22.39
2019-02-20T10:43:57.433Z,22.42
2019-02-20T10:45:07.447Z,22.43
2019-02-20T10:46:17.432Z,22.39
2019-02-20T10:47:26.941Z,22.36
2019-02-20T10:48:35.948Z,22.42
2019-02-20T10:49:45.410Z,22.36
2019-02-20T10:50:54.628Z,22.46
2019-02-20T10:52:03.836Z,22.42
2019-02-20T10:53:13.545Z,22.4
2019-02-20T10:54:22.791Z,22.45
2019-02-20T10:55:31.992Z,22.46
2019-02-20T10:56:41.692Z,22.39
2019-02-20T10:57:51.468Z,22.43
2019-02-20T10:59:00.709Z,22.45
2019-02-20T11:00:10.412Z,22.46
2019-02-20T11:01:30.795Z,22.46
2019-02-20T11:02:40.323Z,22.46
2019-02-20T11:03:49.531Z,22.4
2019-02-20T11:04:59.033Z,22.42
2019-02-20T11:06:08.520Z,22.46
2019-02-20T11:07:17.973Z,22.43
2019-02-20T11:08:27.943Z,22.47
2019-02-20T11:09:37.612Z,22.4
2019-02-20T11:10:46.575Z,22.39
2019-02-20T11:11:56.970Z,22.36
2019-02-20T11:13:06.168Z,22.42
2019-02-20T11:14:15.953Z,22.49
2019-02-20T11:15:25.161Z,22.52
2019-02-20T11:16:35.532Z,22.58
2019-02-20T11:17:44.733Z,22.61
2019-02-20T11:18:54.176Z,22.57
2019-02-20T11:20:03.898Z,22.6
2019-02-20T11:21:13.630Z,22.57
2019-02-20T11:22:23.128Z,22.58
2019-02-20T11:23:32.820Z,22.6
2019-02-20T11:24:42.508Z,22.61
2019-02-20T11:25:52.221Z,22.61
2019-02-20T11:27:01.467Z,22.6
2019-02-20T11:28:10.903Z,22.55
2019-02-20T11:29:20.381Z,22.58
2019-02-20T11:30:30.071Z,22.57
2019-02-20T11:31:39.309Z,22.57
2019-02-20T11:32:48.509Z,22.57
2019-02-20T11:33:58.451Z,22.6
2019-02-20T11:35:08.943Z,22.6
2019-02-20T11:36:18.144Z,22.58
2019-02-20T11:37:27.608Z,22.67
2019-02-20T11:38:37.036Z,22.65
2019-02-20T11:39:46.453Z,22.61
2019-02-20T11:40:55.651Z,22.54
2019-02-20T11:42:05.140Z,22.6
2019-02-20T11:43:14.850Z,22.58
2019-02-20T11:44:26.085Z,22.65
2019-02-20T11:45:35.261Z,22.65
2019-02-20T11:46:47.063Z,22.6
2019-02-20T11:47:56.267Z,22.58
2019-02-20T11:49:05.957Z,22.67
2019-02-20T11:50:15.384Z,22.6
2019-02-20T11:51:24.866Z,22.58
2019-02-20T11:52:42.404Z,22.61
2019-02-20T11:53:52.086Z,22.61
2019-02-20T11:55:01.810Z,22.58
2019-02-20T11:56:14.752Z,22.57
2019-02-20T11:57:31.533Z,22.61
2019-02-20T11:58:41.221Z,22.61
2019-02-20T11:59:51.197Z,22.64
2019-02-20T12:01:00.625Z,22.6
2019-02-20T12:02:09.858Z,22.54
2019-02-20T12:03:19.308Z,22.58
2019-02-20T12:04:28.508Z,22.57
2019-02-20T12:05:38.476Z,22.49
2019-02-20T12:06:48.094Z,22.62
2019-02-20T12:07:57.028Z,22.52
2019-02-20T12:09:06.697Z,22.61
2019-02-20T12:10:17.681Z,22.52
2019-02-20T12:11:26.876Z,22.58
2019-02-20T12:12:36.569Z,22.61
2019-02-20T12:13:46.014Z,22.52
2019-02-20T12:14:56.003Z,22.6
2019-02-20T12:16:05.224Z,22.57
2019-02-20T12:17:14.920Z,22.57
2019-02-20T12:18:24.107Z,22.58
2019-02-20T12:19:33.564Z,22.55
2019-02-20T12:20:44.073Z,22.58
2019-02-20T12:21:53.518Z,22.57
2019-02-20T12:23:03.010Z,22.58
2019-02-20T12:24:12.214Z,22.55
2019-02-20T12:25:21.915Z,22.57
2019-02-20T12:26:39.312Z,22.57
2019-02-20T12:27:49.558Z,22.51
2019-02-20T12:28:58.771Z,22.46
2019-02-20T12:30:08.228Z,22.57
2019-02-20T12:31:17.418Z,22.49
2019-02-20T12:32:26.847Z,22.54
2019-02-20T12:33:38.025Z,22.45
2019-02-20T12:34:48.703Z,22.58
2019-02-20T12:35:58.147Z,22.55
2019-02-20T12:37:07.071Z,22.46
2019-02-20T12:38:16.504Z,22.51
2019-02-20T12:39:27.705Z,22.51
2019-02-20T12:40:36.758Z,22.46
2019-02-20T12:41:45.931Z,22.54
2019-02-20T12:42:55.860Z,22.54
2019-02-20T12:44:05.548Z,22.46
2019-02-20T12:45:15.480Z,22.49
2019-02-20T12:46:24.678Z,22.43
2019-02-20T12:47:33.850Z,22.47
2019-02-20T12:48:43.906Z,22.43
2019-02-20T12:49:53.965Z,22.42
2019-02-20T12:51:03.394Z,22.49
2019-02-20T12:52:12.854Z,22.43
2019-02-20T12:53:22.040Z,22.39
2019-02-20T12:54:31.232Z,22.45
2019-02-20T12:55:40.675Z,22.47
2019-02-20T12:56:50.132Z,22.39
2019-02-20T12:57:58.835Z,22.51
2019-02-20T12:59:12.795Z,22.4
2019-02-20T13:00:22.217Z,22.43
2019-02-20T13:01:31.898Z,22.45
2019-02-20T13:02:41.588Z,22.46
2019-02-20T13:03:51.073Z,22.37
2019-02-20T13:05:00.539Z,22.36
2019-02-20T13:06:09.998Z,22.37
2019-02-20T13:07:20.150Z,22.42
2019-02-20T13:08:30.209Z,22.47
2019-02-20T13:09:40.181Z,22.45
2019-02-20T13:10:49.860Z,22.42
2019-02-20T13:12:01.679Z,22.39
2019-02-20T13:13:11.424Z,22.37
2019-02-20T13:14:20.983Z,22.45
2019-02-20T13:15:32.119Z,22.4
2019-02-20T13:16:41.617Z,22.45
2019-02-20T13:17:51.103Z,22.42
2019-02-20T13:19:00.793Z,22.39
2019-02-20T13:20:10.476Z,22.4
2019-02-20T13:21:19.683Z,22.4
2019-02-20T13:22:29.195Z,22.45
2019-02-20T13:23:38.650Z,22.37
2019-02-20T13:24:48.823Z,22.47
2019-02-20T13:25:58.301Z,22.37
2019-02-20T13:27:13.181Z,22.42
2019-02-20T13:28:30.395Z,22.52
2019-02-20T13:29:39.905Z,22.49
2019-02-20T13:30:49.609Z,22.51
2019-02-20T13:31:59.043Z,22.55
2019-02-20T13:33:08.736Z,22.6
2019-02-20T13:34:18.195Z,22.57
2019-02-20T13:35:27.647Z,22.54
2019-02-20T13:36:36.622Z,22.6
2019-02-20T13:37:46.601Z,22.47
2019-02-20T13:38:56.089Z,22.51
2019-02-20T13:40:05.363Z,22.55
2019-02-20T13:41:15.098Z,22.57
2019-02-20T13:42:24.894Z,22.58
2019-02-20T13:43:34.412Z,22.6
2019-02-20T13:44:44.194Z,22.65
2019-02-20T13:45:54.280Z,22.55
2019-02-20T13:47:04.981Z,22.67
2019-02-20T13:48:14.855Z,22.62
2019-02-20T13:49:23.858Z,22.62
2019-02-20T13:50:33.120Z,22.61
2019-02-20T13:51:42.628Z,22.61
2019-02-20T13:52:57.102Z,22.61
2019-02-20T13:54:06.658Z,22.57
2019-02-20T13:55:16.193Z,22.57
2019-02-20T13:56:25.457Z,22.67
2019-02-20T13:57:34.762Z,22.65
2019-02-20T13:58:44.024Z,22.64
2019-02-20T13:59:53.793Z,22.55
2019-02-20T14:01:03.807Z,22.62
2019-02-20T14:02:13.540Z,22.61
2019-02-20T14:03:23.027Z,22.58
2019-02-20T14:04:32.856Z,22.57
2019-02-20T14:05:42.413Z,22.65
2019-02-20T14:06:52.469Z,22.61
2019-02-20T14:08:02.452Z,22.57
2019-02-20T14:09:11.754Z,22.7
2019-02-20T14:10:24.173Z,22.6
2019-02-20T14:11:33.653Z,22.68
2019-02-20T14:12:43.131Z,22.62
2019-02-20T14:13:51.895Z,22.64
2019-02-20T14:15:01.453Z,22.57
2019-02-20T14:16:10.956Z,22.58
2019-02-20T14:17:31.197Z,22.64
2019-02-20T14:18:40.688Z,22.58
2019-02-20T14:19:50.129Z,22.65
2019-02-20T14:20:59.404Z,22.62
2019-02-20T14:22:10.195Z,22.62
2019-02-20T14:23:19.943Z,22.52
2019-02-20T14:24:30.698Z,22.57
2019-02-20T14:25:40.967Z,22.52
2019-02-20T14:26:51.826Z,22.65
2019-02-20T14:28:01.431Z,22.52
2019-02-20T14:29:12.510Z,22.62
2019-02-20T14:30:22.029Z,22.55
2019-02-20T14:31:31.337Z,22.54
2019-02-20T14:32:40.890Z,22.58
2019-02-20T14:33:50.748Z,22.61
2019-02-20T14:35:01.127Z,22.49
2019-02-20T14:36:10.473Z,22.61
2019-02-20T14:37:20.170Z,22.55
2019-02-20T14:38:31.904Z,22.55
2019-02-20T14:39:42.601Z,22.61
2019-02-20T14:40:52.555Z,22.6
2019-02-20T14:42:03.243Z,22.55
2019-02-20T14:43:14.048Z,22.55
2019-02-20T14:44:24.094Z,22.55
2019-02-20T14:45:35.061Z,22.52
2019-02-20T14:46:46.150Z,22.57
2019-02-20T14:47:57.665Z,22.57
2019-02-20T14:49:09.515Z,22.52
2019-02-20T14:50:19.915Z,22.57
2019-02-20T14:51:30.091Z,22.57
2019-02-20T14:52:39.457Z,22.54
2019-02-20T14:53:49.165Z,22.51
2019-02-20T14:54:59.135Z,22.37
2019-02-20T14:56:08.379Z,22.54
2019-02-20T14:57:24.208Z,22.55
2019-02-20T14:58:33.173Z,22.46
2019-02-20T14:59:42.756Z,22.54
2019-02-20T15:00:52.314Z,22.46
2019-02-20T15:02:01.617Z,22.46